Kerala — A8MJ3 — position and weather

sailwx.info

Track history (hours):
 
Tides and Currents Weather Stations Pressure Air Temp Water Temp Dewpoint Dewpoint Depression Visibility Wind Speed Wind Dir Waves Ship Positions

Kerala

Last reported at 2018-Jan-07 20:57 UTC. Time now 2018-Feb-20 17:50 UTC.
Position N 33°44' W 118°12'.
Warning: this ship's position is 43 days out of date.

Length 228 m; draft 14.4 m.

Type: Tanker. MMSI: 636013350.

Date/timePositionNaut miles runAvg speedWind from/ knotsBaromVisibWave heightAir tempDewpointWater temp
2018-Jan-07 20:57N 33°44' W 118°12'4 6.1
2018-Jan-07 20:23N 33°41' W 118°09'2 0.1
2018-Jan-07 01:57N 33°41' W 118°08'0 0.0
2018-Jan-07 01:09N 33°41' W 118°08'0 0.3
2018-Jan-07 00:21N 33°41' W 118°08'0 0.2
2018-Jan-07 00:00N 33°41' W 118°08'2 4.5
2018-Jan-06 23:30N 33°39' W 118°09'5 9.0
2018-Jan-06 23:00N 33°35' W 118°09'611.0
2018-Jan-06 22:30N 33°29' W 118°07'611.2
2018-Jan-06 21:56N 33°23' W 118°04'511.5
2018-Jan-06 21:29N 33°19' W 118°02'611.6
2018-Jan-06 21:00N 33°14' W 117°59'4 8.7
2018-Jan-06 20:30N 33°10' W 117°57'2 4.4
2018-Jan-06 20:00N 33°08' W 117°56'510.0
2018-Jan-06 19:30N 33°03' W 117°54'612.6
2018-Jan-06 19:00N 32°57' W 117°51'712.8
2018-Jan-06 18:29N 32°51' W 117°47'612.7
2018-Jan-06 18:00N 32°46' W 117°44'612.5
2018-Jan-06 17:30N 32°40' W 117°41'612.3
2018-Jan-06 17:00N 32°34' W 117°39'612.5
2018-Jan-06 16:30N 32°28' W 117°37'612.2
2018-Jan-06 16:00N 32°23' W 117°35'612.1
2018-Jan-06 15:30N 32°17' W 117°33'611.9
2018-Jan-06 15:00N 32°11' W 117°31'611.6
2018-Jan-06 14:30N 32°05' W 117°29'611.7
2018-Jan-06 13:57N 31°59' W 117°27'1011.5
2018-Jan-06 13:06N 31°50' W 117°23'111.6
2018-Jan-06 13:00N 31°49' W 117°23'610.8
2018-Jan-06 12:25N 31°43' W 117°20'4 9.5
2018-Jan-06 12:00N 31°39' W 117°19'1111.2
2018-Jan-06 11:00N 31°28' W 117°16'611.7
2018-Jan-06 10:30N 31°23' W 117°15'711.6
2018-Jan-06 09:55N 31°16' W 117°13'511.4
2018-Jan-06 09:30N 31°11' W 117°12'611.3
2018-Jan-06 09:00N 31°06' W 117°10'611.3
2018-Jan-06 08:30N 31°00' W 117°08'611.3
2018-Jan-06 08:00N 30°55' W 117°06'611.1
2018-Jan-06 07:30N 30°50' W 117°05'811.3
2018-Jan-06 06:46N 30°41' W 117°02'311.3
2018-Jan-06 06:30N 30°39' W 117°01'611.2
2018-Jan-06 06:00N 30°33' W 116°60'510.9
2018-Jan-06 05:30N 30°28' W 116°58'910.9
2018-Jan-06 04:39N 30°19' W 116°55'211.1
2018-Jan-06 04:30N 30°17' W 116°54'611.2
2018-Jan-06 04:00N 30°12' W 116°53'811.1
2018-Jan-06 03:16N 30°04' W 116°50'311.1
2018-Jan-06 03:00N 30°01' W 116°49'511.2
2018-Jan-06 02:30N 29°56' W 116°48'3611.6
2018-Jan-05 23:22N 29°21' W 116°36'1711.9
2018-Jan-05 21:54N 29°04' W 116°31'  
Track history (hours):
 
Tides and Currents Weather Stations Pressure Air Temp Water Temp Dewpoint Dewpoint Depression Visibility Wind Speed Wind Dir Waves Ship Positions

Kerala

Last reported at 2018-Jan-07 20:57 UTC. Time now 2018-Feb-20 17:50 UTC.
Position N 33°44' W 118°12'.
Warning: this ship's position is 43 days out of date.

Length 228 m; draft 14.4 m.

Type: Tanker. MMSI: 636013350.

Date/timePositionNaut miles runAvg speedWind from/ knotsBaromVisibWave heightAir tempDewpointWater temp
2018-Jan-07 20:57N 33°44' W 118°12'4 6.1
2018-Jan-07 20:23N 33°41' W 118°09'2 0.1
2018-Jan-07 01:57N 33°41' W 118°08'0 0.0
2018-Jan-07 01:09N 33°41' W 118°08'0 0.3
2018-Jan-07 00:21N 33°41' W 118°08'0 0.2
2018-Jan-07 00:00N 33°41' W 118°08'2 4.5
2018-Jan-06 23:30N 33°39' W 118°09'5 9.0
2018-Jan-06 23:00N 33°35' W 118°09'611.0
2018-Jan-06 22:30N 33°29' W 118°07'611.2
2018-Jan-06 21:56N 33°23' W 118°04'511.5
2018-Jan-06 21:29N 33°19' W 118°02'611.6
2018-Jan-06 21:00N 33°14' W 117°59'4 8.7
2018-Jan-06 20:30N 33°10' W 117°57'2 4.4
2018-Jan-06 20:00N 33°08' W 117°56'510.0
2018-Jan-06 19:30N 33°03' W 117°54'612.6
2018-Jan-06 19:00N 32°57' W 117°51'712.8
2018-Jan-06 18:29N 32°51' W 117°47'612.7
2018-Jan-06 18:00N 32°46' W 117°44'612.5
2018-Jan-06 17:30N 32°40' W 117°41'612.3
2018-Jan-06 17:00N 32°34' W 117°39'612.5
2018-Jan-06 16:30N 32°28' W 117°37'612.2
2018-Jan-06 16:00N 32°23' W 117°35'612.1
2018-Jan-06 15:30N 32°17' W 117°33'611.9
2018-Jan-06 15:00N 32°11' W 117°31'611.6
2018-Jan-06 14:30N 32°05' W 117°29'611.7
2018-Jan-06 13:57N 31°59' W 117°27'1011.5
2018-Jan-06 13:06N 31°50' W 117°23'111.6
2018-Jan-06 13:00N 31°49' W 117°23'610.8
2018-Jan-06 12:25N 31°43' W 117°20'4 9.5
2018-Jan-06 12:00N 31°39' W 117°19'1111.2
2018-Jan-06 11:00N 31°28' W 117°16'611.7
2018-Jan-06 10:30N 31°23' W 117°15'711.6
2018-Jan-06 09:55N 31°16' W 117°13'511.4
2018-Jan-06 09:30N 31°11' W 117°12'611.3
2018-Jan-06 09:00N 31°06' W 117°10'611.3
2018-Jan-06 08:30N 31°00' W 117°08'611.3
2018-Jan-06 08:00N 30°55' W 117°06'611.1
2018-Jan-06 07:30N 30°50' W 117°05'811.3
2018-Jan-06 06:46N 30°41' W 117°02'311.3
2018-Jan-06 06:30N 30°39' W 117°01'611.2
2018-Jan-06 06:00N 30°33' W 116°60'510.9
2018-Jan-06 05:30N 30°28' W 116°58'910.9
2018-Jan-06 04:39N 30°19' W 116°55'211.1
2018-Jan-06 04:30N 30°17' W 116°54'611.2
2018-Jan-06 04:00N 30°12' W 116°53'811.1
2018-Jan-06 03:16N 30°04' W 116°50'311.1
2018-Jan-06 03:00N 30°01' W 116°49'511.2
2018-Jan-06 02:30N 29°56' W 116°48'3611.6
2018-Jan-05 23:22N 29°21' W 116°36'1711.9
2018-Jan-05 21:54N 29°04' W 116°31'  

Dump ship's entire track history